Time;durP1;ratioP1;P1;durP2;ratioP2;P2;SDS_P1;SDS_P2;PMS_P1;PMS_P2;Temp;Humidity;BMP_temperature;BMP_pressure;BME280_temperature;BME280_humidity;BME280_pressure;Samples;Min_cycle;Max_cycle;Signal;HPM_P1;HPM_P2
2021/06/05 00:01:20;;;;;;;6.50;3.78;;;;;;;17.05;76.94;99262.19;3608874;39;20055;-63
2021/06/05 00:03:48;;;;;;;;;;;;;;;17.05;76.97;99268.34;3610684;39;20063;-63
2021/06/05 00:06:17;;;;;;;5.07;3.40;;;;;;;17.20;76.55;99259.97;3611048;39;19939;-63
2021/06/05 00:08:45;;;;;;;3.92;3.53;;;;;;;17.34;76.55;99249.91;3611064;39;20051;-63
2021/06/05 00:11:16;;;;;;;4.30;3.90;;;;;;;17.40;76.01;99242.88;3610663;39;20078;-63
2021/06/05 00:13:48;;;;;;;8.98;3.70;;;;;;;17.48;75.77;99242.56;3610012;39;20043;-63
2021/06/05 00:16:18;;;;;;;4.40;3.33;;;;;;;17.42;75.53;99241.59;3610691;39;20327;-63
2021/06/05 00:18:48;;;;;;;4.18;3.22;;;;;;;17.35;76.01;99235.53;3612053;39;20042;-63
2021/06/05 00:21:16;;;;;;;5.68;3.28;;;;;;;17.39;75.93;99241.22;3612451;39;20047;-63
2021/06/05 00:23:43;;;;;;;7.22;4.15;;;;;;;17.40;75.88;99241.00;3612741;39;20408;-63
2021/06/05 00:26:11;;;;;;;4.40;3.10;;;;;;;17.45;75.51;99235.78;3612417;39;20083;-62
2021/06/05 00:28:38;;;;;;;4.15;3.78;;;;;;;17.50;75.37;99232.44;3611697;39;20054;-63
2021/06/05 00:31:07;;;;;;;4.93;3.55;;;;;;;17.53;75.46;99232.00;3611588;39;20043;-63
2021/06/05 00:33:35;;;;;;;4.88;3.55;;;;;;;17.48;74.90;99231.88;3611911;39;20044;-63
2021/06/05 00:36:03;;;;;;;5.32;3.63;;;;;;;17.41;75.38;99228.47;3612451;39;20083;-63
2021/06/05 00:38:30;;;;;;;4.97;4.40;;;;;;;17.32;75.39;99227.97;3611932;39;20058;-63
2021/06/05 00:40:58;;;;;;;7.88;4.97;;;;;;;17.22;75.50;99227.66;3612504;39;20047;-62
2021/06/05 00:43:29;;;;;;;7.82;4.70;;;;;;;17.09;76.24;99231.31;3610721;39;20044;-63
2021/06/05 00:45:58;;;;;;;8.55;4.75;;;;;;;17.05;76.76;99230.16;3609791;39;20128;-63
2021/06/05 00:48:27;;;;;;;7.43;4.78;;;;;;;17.06;76.40;99221.09;3609993;39;20063;-63
2021/06/05 00:50:59;;;;;;;7.22;4.30;;;;;;;17.08;76.40;99232.38;3609426;39;20051;-63
2021/06/05 00:53:34;;;;;;;11.40;5.53;;;;;;;17.15;76.33;99226.97;3609181;39;20064;-63
2021/06/05 00:56:07;;;;;;;8.63;4.28;;;;;;;17.14;76.55;99230.66;3610153;39;20051;-63
2021/06/05 00:58:35;;;;;;;6.35;4.53;;;;;;;17.25;76.69;99232.56;3610251;39;20087;-63
2021/06/05 01:01:10;;;;;;;6.75;4.28;;;;;;;17.32;76.53;99230.63;3609588;39;20123;-62
2021/06/05 01:03:40;;;;;;;5.35;4.28;;;;;;;17.41;75.92;99231.94;3608582;39;20060;-62
2021/06/05 01:06:15;;;;;;;5.78;4.78;;;;;;;17.46;75.41;99226.72;3609582;39;20319;-62
2021/06/05 01:08:50;;;;;;;4.90;3.97;;;;;;;17.41;75.66;99228.47;3607850;39;20075;-62
2021/06/05 01:11:24;;;;;;;5.93;4.35;;;;;;;17.29;75.53;99231.06;3608656;39;20043;-62
2021/06/05 01:13:54;;;;;;;;;;;;;;;17.24;75.46;99225.59;3608855;39;20056;-62
2021/06/05 01:16:24;;;;;;;5.90;3.65;;;;;;;17.11;75.60;99223.91;3608275;39;19968;-62
2021/06/05 01:18:59;;;;;;;8.85;4.65;;;;;;;17.07;76.42;99222.75;3608245;39;20338;-62
2021/06/05 01:21:42;;;;;;;6.22;3.40;;;;;;;17.11;76.69;99229.25;3608765;39;20040;-62
2021/06/05 01:24:23;;;;;;;5.30;3.75;;;;;;;17.20;75.94;99232.44;3608719;39;20051;-61
2021/06/05 01:26:57;;;;;;;6.10;3.78;;;;;;;17.20;75.81;99227.91;3608118;39;20102;-62
2021/06/05 01:29:29;;;;;;;3.88;3.45;;;;;;;17.15;75.80;99224.28;3608132;39;20036;-62
2021/06/05 01:32:00;;;;;;;6.60;4.32;;;;;;;17.00;75.91;99227.34;3609259;39;20044;-62
2021/06/05 01:34:38;;;;;;;6.57;3.90;;;;;;;17.00;76.59;99227.34;3608321;39;20059;-62
2021/06/05 01:37:09;;;;;;;6.07;4.22;;;;;;;16.91;76.28;99226.00;3608681;39;20055;-63
2021/06/05 01:39:47;;;;;;;5.63;3.80;;;;;;;16.92;76.67;99225.78;3608098;39;20076;-63
2021/06/05 01:42:28;;;;;;;4.43;3.72;;;;;;;17.02;76.33;99220.75;3608939;39;20063;-62
2021/06/05 01:44:59;;;;;;;5.90;4.30;;;;;;;17.05;76.63;99219.47;3609169;39;20050;-62
2021/06/05 01:47:29;;;;;;;5.55;3.47;;;;;;;17.11;76.44;99225.78;3608683;39;20171;-62
2021/06/05 01:49:58;;;;;;;4.05;3.65;;;;;;;17.08;76.04;99227.03;3608049;39;20043;-62
2021/06/05 01:52:32;;;;;;;5.35;3.25;;;;;;;17.12;76.22;99224.72;3608916;39;20109;-62
2021/06/05 01:55:08;;;;;;;5.00;4.18;;;;;;;17.20;75.86;99219.09;3609056;39;20047;-62
2021/06/05 01:57:43;;;;;;;3.90;3.50;;;;;;;17.25;75.82;99216.53;3607651;39;20032;-62
2021/06/05 02:00:24;;;;;;;3.83;3.53;;;;;;;17.20;76.06;99213.72;3608067;39;20058;-62
2021/06/05 02:02:53;;;;;;;7.80;4.65;;;;;;;17.14;75.59;99218.09;3608947;39;20128;-62
2021/06/05 02:05:30;;;;;;;6.18;4.35;;;;;;;16.93;75.88;99211.38;3609030;39;20399;-62
2021/06/05 02:08:03;;;;;;;4.30;3.90;;;;;;;16.84;76.93;99215.41;3607803;39;20120;-62
2021/06/05 02:10:32;;;;;;;5.20;4.28;;;;;;;16.90;77.01;99205.66;3608905;39;20051;-62
2021/06/05 02:13:07;;;;;;;5.75;5.25;;;;;;;16.84;76.60;99207.38;3607805;39;20059;-62
2021/06/05 02:15:49;;;;;;;8.70;5.13;;;;;;;16.80;77.25;99209.69;3607993;39;20043;-62
2021/06/05 02:18:20;;;;;;;8.27;4.68;;;;;;;16.88;76.75;99205.91;3607528;39;20054;-63
2021/06/05 02:20:54;;;;;;;5.35;3.78;;;;;;;16.90;76.70;99203.00;3607807;39;20059;-62
2021/06/05 02:23:25;;;;;;;5.05;4.25;;;;;;;16.93;76.66;99206.03;3608812;39;20047;-63
2021/06/05 02:25:54;;;;;;;5.65;3.83;;;;;;;16.97;76.21;99209.91;3607995;39;20340;-62
2021/06/05 02:28:24;;;;;;;4.15;3.40;;;;;;;17.02;76.25;99206.53;3667181;22;20404;-67
2021/06/05 02:30:53;;;;;;;5.90;3.88;;;;;;;16.98;76.10;99208.88;3613252;39;20024;-67
2021/06/05 02:33:22;;;;;;;4.90;4.30;;;;;;;16.94;75.71;99213.03;3610993;39;20111;-67
2021/06/05 02:35:50;;;;;;;7.03;4.20;;;;;;;16.86;76.51;99199.97;3611107;39;20343;-65
2021/06/05 02:38:30;;;;;;;4.88;3.53;;;;;;;16.92;76.83;99200.94;3608260;39;20392;-66
2021/06/05 02:41:03;;;;;;;4.43;3.65;;;;;;;16.95;76.34;99192.47;3609712;39;20341;-65
2021/06/05 02:43:38;;;;;;;3.92;3.33;;;;;;;16.93;76.29;99199.88;3609580;39;20419;-66
2021/06/05 02:46:11;;;;;;;3.95;3.38;;;;;;;16.95;75.86;99203.16;3609490;39;20066;-66
2021/06/05 02:48:46;;;;;;;4.63;3.72;;;;;;;16.87;75.69;99198.94;3607717;39;20043;-66
2021/06/05 02:51:19;;;;;;;4.43;4.00;;;;;;;16.80;75.75;99200.88;3609345;39;20055;-67
2021/06/05 02:53:48;;;;;;;5.35;4.15;;;;;;;16.70;76.32;99189.88;3608150;39;20043;-67
2021/06/05 02:56:16;;;;;;;4.68;4.20;;;;;;;16.70;75.84;99200.56;3609775;39;20083;-66
2021/06/05 02:58:45;;;;;;;6.75;4.10;;;;;;;16.65;76.71;99209.19;3609600;39;20050;-66
2021/06/05 03:01:18;;;;;;;7.38;4.18;;;;;;;16.76;76.66;99208.50;3609346;39;20475;-67
2021/06/05 03:03:48;;;;;;;5.47;4.50;;;;;;;16.80;76.07;99208.88;3610704;39;20048;-65
2021/06/05 03:06:16;;;;;;;6.03;4.63;;;;;;;16.75;76.60;99206.88;3610778;39;20051;-65
2021/06/05 03:08:45;;;;;;;10.93;4.70;;;;;;;16.67;76.64;99222.34;3610196;39;20039;-67
2021/06/05 03:11:16;;;;;;;5.47;4.97;;;;;;;16.67;77.22;99223.16;3609499;39;20058;-67
2021/06/05 03:13:45;;;;;;;8.45;4.88;;;;;;;16.64;77.13;99215.59;3609505;39;20056;-67
2021/06/05 03:16:15;;;;;;;5.68;5.10;;;;;;;16.65;76.74;99219.06;3609549;39;20050;-68
2021/06/05 03:18:47;;;;;;;9.73;4.88;;;;;;;16.57;76.60;99218.34;3609071;39;20055;-64
2021/06/05 03:21:18;;;;;;;6.05;4.38;;;;;;;16.50;77.29;99216.78;3609591;39;20044;-66
2021/06/05 03:23:49;;;;;;;5.07;4.50;;;;;;;16.51;77.11;99213.88;3610517;39;20060;-67
2021/06/05 03:26:27;;;;;;;5.00;4.15;;;;;;;16.50;77.58;99214.09;3609547;39;20035;-65
2021/06/05 03:28:58;;;;;;;5.38;4.45;;;;;;;16.59;77.70;99218.91;3608665;39;20136;-66
2021/06/05 03:31:27;;;;;;;6.90;3.90;;;;;;;16.64;77.39;99212.09;3610544;39;20093;-66
2021/06/05 03:34:00;;;;;;;5.30;4.35;;;;;;;16.70;77.06;99212.03;3609759;39;20124;-65
2021/06/05 03:36:29;;;;;;;4.97;4.57;;;;;;;16.63;76.90;99203.28;3609366;39;20050;-67
2021/06/05 03:38:59;;;;;;;5.18;4.30;;;;;;;16.56;77.34;99203.34;3610568;39;20050;-66
2021/06/05 03:41:32;;;;;;;4.25;3.85;;;;;;;16.54;77.70;99204.63;3609365;39;20426;-67
2021/06/05 03:44:01;;;;;;;4.95;3.83;;;;;;;16.58;77.96;99198.63;3609089;39;20125;-66
2021/06/05 03:46:29;;;;;;;5.20;3.78;;;;;;;16.63;77.42;99194.47;3610789;39;20031;-66
2021/06/05 03:49:01;;;;;;;5.15;3.90;;;;;;;16.50;78.19;99188.22;3609014;39;20040;-66
2021/06/05 03:51:31;;;;;;;6.50;4.10;;;;;;;16.52;78.10;99201.34;3609042;39;20139;-67
2021/06/05 03:54:00;;;;;;;5.30;4.07;;;;;;;16.50;78.04;99195.44;3609301;39;20047;-67
2021/06/05 03:56:30;;;;;;;4.78;4.38;;;;;;;16.49;78.11;99201.78;3608929;39;20040;-67
2021/06/05 03:58:58;;;;;;;5.38;3.67;;;;;;;16.57;78.47;99193.47;3608497;39;20054;-67
2021/06/05 04:01:29;;;;;;;6.78;4.35;;;;;;;16.69;78.07;99193.56;3610212;39;20408;-67
2021/06/05 04:03:58;;;;;;;4.65;3.70;;;;;;;16.69;77.47;99196.22;3610041;39;20055;-66
2021/06/05 04:06:26;;;;;;;5.97;4.55;;;;;;;16.73;77.72;99197.44;3608865;39;20044;-66
2021/06/05 04:08:55;;;;;;;5.90;4.07;;;;;;;16.79;77.83;99199.25;3609303;39;20101;-67
2021/06/05 04:11:23;;;;;;;7.97;4.72;;;;;;;16.88;77.62;99208.56;3609674;39;20047;-67
2021/06/05 04:13:50;;;;;;;7.22;4.40;;;;;;;16.93;77.58;99206.03;3609804;39;20397;-66
2021/06/05 04:16:18;;;;;;;7.18;4.15;;;;;;;17.03;77.37;99210.88;3609863;39;20039;-66
2021/06/05 04:18:47;;;;;;;4.72;3.65;;;;;;;17.15;76.88;99203.72;3609351;39;20208;-67
2021/06/05 04:21:23;;;;;;;4.53;4.13;;;;;;;17.22;76.27;99214.31;3608858;39;20084;-66
2021/06/05 04:23:51;;;;;;;7.47;5.30;;;;;;;17.21;75.97;99210.00;3609902;39;20132;-65
2021/06/05 04:26:20;;;;;;;6.78;4.07;;;;;;;17.25;75.76;99211.19;3610468;39;20066;-66
2021/06/05 04:28:48;;;;;;;4.00;3.38;;;;;;;17.39;75.35;99210.00;3610095;39;20063;-67
2021/06/05 04:31:16;;;;;;;11.27;6.90;;;;;;;17.47;74.65;99204.31;3609109;39;20328;-67
2021/06/05 04:33:43;;;;;;;4.78;3.97;;;;;;;17.52;75.07;99211.66;3610252;39;20051;-66
2021/06/05 04:36:15;;;;;;;5.20;3.90;;;;;;;17.70;75.18;99211.56;3610101;39;20396;-66
2021/06/05 04:38:44;;;;;;;6.28;4.10;;;;;;;17.83;74.40;99210.59;3609834;39;20050;-67
2021/06/05 04:41:13;;;;;;;3.90;3.55;;;;;;;17.89;74.59;99212.34;3611231;39;20055;-66
2021/06/05 04:43:41;;;;;;;4.78;3.97;;;;;;;17.98;74.03;99215.50;3609651;39;20080;-66
2021/06/05 04:46:10;;;;;;;6.05;3.83;;;;;;;18.04;73.76;99223.44;3610351;39;20036;-66
2021/06/05 04:48:37;;;;;;;5.78;4.45;;;;;;;17.92;73.80;99217.25;3609771;39;20045;-66
2021/06/05 04:51:05;;;;;;;5.32;4.72;;;;;;;17.87;74.20;99217.09;3609811;39;20205;-66
2021/06/05 04:53:35;;;;;;;6.57;4.65;;;;;;;17.79;74.40;99220.13;3609803;39;20047;-66
2021/06/05 04:56:03;;;;;;;5.63;4.90;;;;;;;17.77;74.31;99220.34;3609773;39;20056;-66
2021/06/05 04:58:30;;;;;;;5.70;5.20;;;;;;;17.71;74.15;99220.41;3608537;39;20051;-67
2021/06/05 05:00:59;;;;;;;5.57;5.07;;;;;;;17.62;75.01;99225.28;3609686;39;20081;-67
2021/06/05 05:03:29;;;;;;;5.90;5.05;;;;;;;17.65;74.65;99221.34;3609671;39;20052;-66
2021/06/05 05:06:00;;;;;;;6.07;5.45;;;;;;;17.73;75.00;99231.72;3609569;39;20084;-66
2021/06/05 05:08:28;;;;;;;7.10;4.80;;;;;;;17.71;75.03;99223.09;3609210;39;20047;-66
2021/06/05 05:10:59;;;;;;;5.38;4.88;;;;;;;17.70;74.77;99224.13;3609846;39;20060;-66
2021/06/05 05:13:28;;;;;;;6.10;5.22;;;;;;;17.75;74.77;99229.63;3609849;39;20046;-66
2021/06/05 05:15:58;;;;;;;5.88;5.07;;;;;;;17.76;74.64;99224.09;3608749;39;20055;-67
2021/06/05 05:18:26;;;;;;;9.57;6.00;;;;;;;17.79;75.24;99236.97;3609715;39;20385;-66
2021/06/05 05:20:55;;;;;;;6.75;5.53;;;;;;;17.83;74.92;99234.66;3610015;39;20052;-67
2021/06/05 05:23:25;;;;;;;7.97;5.85;;;;;;;17.89;74.85;99231.06;3613830;39;20059;-67
2021/06/05 05:25:53;;;;;;;6.60;5.97;;;;;;;17.86;74.84;99239.56;3614350;39;20043;-67
2021/06/05 05:28:23;;;;;;;7.82;5.72;;;;;;;17.92;75.07;99240.47;3614816;39;20058;-66
2021/06/05 05:30:53;;;;;;;6.53;5.88;;;;;;;17.90;75.04;99239.91;3615204;39;20071;-65
2021/06/05 05:33:21;;;;;;;8.25;6.35;;;;;;;17.93;74.96;99245.63;3615822;39;20408;-65
2021/06/05 05:35:50;;;;;;;7.30;6.38;;;;;;;17.94;74.99;99239.22;3612203;39;20047;-66
2021/06/05 05:38:21;;;;;;;6.63;6.03;;;;;;;18.03;74.72;99245.03;3609846;39;20046;-66
2021/06/05 05:40:49;;;;;;;7.68;6.22;;;;;;;18.00;74.84;99241.00;3609777;39;20043;-65
2021/06/05 05:43:17;;;;;;;6.75;6.05;;;;;;;18.03;74.94;99235.16;3609684;39;20214;-64
2021/06/05 05:45:45;;;;;;;6.78;6.07;;;;;;;18.12;74.69;99238.31;3608514;39;20416;-65
2021/06/05 05:48:14;;;;;;;6.07;5.53;;;;;;;18.20;75.11;99237.16;3609376;39;20447;-65
2021/06/05 05:50:45;;;;;;;8.73;6.30;;;;;;;18.29;74.77;99235.78;3609590;39;20055;-66
2021/06/05 05:53:12;;;;;;;8.32;6.72;;;;;;;18.33;74.79;99242.31;3608759;39;20047;-66
2021/06/05 05:55:42;;;;;;;8.68;7.13;;;;;;;18.29;74.86;99246.50;3609688;39;20328;-66
2021/06/05 05:58:13;;;;;;;9.20;6.88;;;;;;;18.36;74.64;99241.81;3609564;39;20376;-66
2021/06/05 06:00:48;;;;;;;12.35;7.32;;;;;;;18.41;74.52;99238.44;3610205;39;20083;-66
2021/06/05 06:03:17;;;;;;;9.88;8.10;;;;;;;18.43;74.49;99239.84;3612476;39;20051;-64
2021/06/05 06:05:45;;;;;;;10.68;7.78;;;;;;;18.48;74.73;99239.97;3611549;39;20372;-66
2021/06/05 06:08:16;;;;;;;17.10;10.55;;;;;;;18.51;74.72;99236.81;3613143;39;20061;-66
2021/06/05 06:10:44;;;;;;;12.15;9.27;;;;;;;18.55;74.69;99242.53;3612609;39;20051;-66
2021/06/05 06:13:12;;;;;;;11.50;8.55;;;;;;;18.65;74.77;99250.78;3613897;39;20044;-67
2021/06/05 06:15:41;;;;;;;12.50;9.13;;;;;;;18.68;74.48;99252.19;3611405;39;20047;-65
2021/06/05 06:18:12;;;;;;;17.42;11.35;;;;;;;18.73;74.21;99249.63;3611801;39;20079;-67
2021/06/05 06:20:42;;;;;;;16.98;11.07;;;;;;;18.63;74.15;99254.75;3611999;39;20059;-66
2021/06/05 06:23:22;;;;;;;17.30;10.77;;;;;;;18.66;74.80;99254.28;3611356;39;20052;-66
2021/06/05 06:25:54;;;;;;;18.25;10.80;;;;;;;18.76;74.57;99251.84;3612155;39;20039;-67
2021/06/05 06:28:31;;;;;;;13.82;9.68;;;;;;;18.85;74.23;99263.00;3611858;39;20036;-65
2021/06/05 06:31:00;;;;;;;19.27;11.10;;;;;;;18.94;74.03;99258.91;3611023;39;20051;-64
2021/06/05 06:33:40;;;;;;;14.90;9.35;;;;;;;19.19;73.80;99259.47;3611449;39;20048;-66
2021/06/05 06:36:09;;;;;;;14.27;9.90;;;;;;;19.39;72.87;99258.22;3610999;39;20043;-65
2021/06/05 06:38:47;;;;;;;14.48;10.13;;;;;;;19.42;72.82;99257.75;3610071;39;20320;-64
2021/06/05 06:41:20;;;;;;;15.63;10.07;;;;;;;19.51;72.32;99253.63;3609967;39;20020;-65
2021/06/05 06:43:51;;;;;;;16.48;11.00;;;;;;;19.55;71.99;99258.28;3608774;39;20389;-65
2021/06/05 06:46:36;;;;;;;16.25;10.93;;;;;;;19.67;71.74;99257.44;3609772;39;20063;-66
2021/06/05 06:49:11;;;;;;;15.20;10.35;;;;;;;19.74;71.58;99256.22;3609366;39;20027;-65
2021/06/05 06:51:50;;;;;;;15.98;10.40;;;;;;;19.84;71.61;99252.94;3609074;39;20056;-65
2021/06/05 06:54:22;;;;;;;15.98;10.65;;;;;;;19.96;70.96;99255.53;3608866;39;20057;-66
2021/06/05 06:56:49;;;;;;;14.68;10.75;;;;;;;20.08;70.75;99258.13;3608208;39;20051;-67
2021/06/05 06:59:21;;;;;;;14.57;9.40;;;;;;;20.15;70.60;99261.47;3607594;39;20047;-65
2021/06/05 07:01:50;;;;;;;15.80;10.52;;;;;;;20.09;70.35;99262.47;3608851;39;20047;-66
2021/06/05 07:04:19;;;;;;;14.82;9.30;;;;;;;20.12;70.17;99259.28;3607810;39;20055;-65
2021/06/05 07:06:47;;;;;;;12.30;9.15;;;;;;;20.12;69.96;99267.34;3609018;39;20032;-66
2021/06/05 07:09:15;;;;;;;13.18;10.07;;;;;;;20.09;70.08;99267.84;3608869;39;20048;-66
2021/06/05 07:11:43;;;;;;;13.32;9.13;;;;;;;20.13;70.45;99272.47;3608912;39;20128;-65
2021/06/05 07:14:10;;;;;;;12.50;9.65;;;;;;;20.19;70.08;99278.72;3609212;39;20039;-66
2021/06/05 07:16:41;;;;;;;13.25;9.25;;;;;;;20.27;70.06;99273.75;3608821;39;20423;-66
2021/06/05 07:19:10;;;;;;;12.48;8.82;;;;;;;20.50;69.42;99267.44;3608728;39;20119;-66
2021/06/05 07:21:38;;;;;;;34.38;30.65;;;;;;;20.75;68.28;99264.31;3608843;39;20108;-65
2021/06/05 07:24:06;;;;;;;13.77;9.55;;;;;;;20.82;68.24;99269.50;3607715;39;20059;-66
2021/06/05 07:26:35;;;;;;;11.35;8.13;;;;;;;21.02;67.65;99261.72;3608639;39;20055;-65
2021/06/05 07:29:06;;;;;;;10.95;7.97;;;;;;;21.18;67.09;99273.44;3607064;39;20035;-66
2021/06/05 07:31:37;;;;;;;11.18;9.50;;;;;;;21.31;66.83;99266.91;3608470;39;20128;-66
2021/06/05 07:34:05;;;;;;;14.88;11.05;;;;;;;21.24;65.93;99266.28;3608464;39;20084;-67
2021/06/05 07:36:37;;;;;;;13.80;8.48;;;;;;;21.07;66.48;99269.03;3607529;39;20128;-66
2021/06/05 07:39:09;;;;;;;9.73;7.38;;;;;;;20.95;67.13;99265.66;3608410;39;20043;-65
2021/06/05 07:41:37;;;;;;;15.32;12.02;;;;;;;20.96;66.31;99261.91;3609595;39;20096;-66
2021/06/05 07:44:05;;;;;;;11.55;6.80;;;;;;;20.85;67.08;99268.19;3608989;39;20282;-66
2021/06/05 07:46:32;;;;;;;10.82;7.53;;;;;;;20.83;67.04;99262.25;3610036;39;20055;-65
2021/06/05 07:49:00;;;;;;;10.85;8.23;;;;;;;20.62;68.17;99270.03;3609539;39;20059;-66
2021/06/05 07:51:27;;;;;;;14.32;9.43;;;;;;;20.81;67.90;99267.06;3610418;39;20051;-66
2021/06/05 07:53:55;;;;;;;10.98;8.55;;;;;;;20.83;66.94;99265.75;3610131;39;20047;-67
2021/06/05 07:56:24;;;;;;;9.05;7.15;;;;;;;20.79;67.23;99270.00;3610096;39;20046;-66
2021/06/05 07:58:51;;;;;;;9.95;7.20;;;;;;;20.86;67.61;99267.97;3612340;39;20044;-66
2021/06/05 08:01:22;;;;;;;10.32;7.15;;;;;;;20.92;66.61;99261.56;3615794;39;20337;-65
2021/06/05 08:03:50;;;;;;;9.32;7.03;;;;;;;20.91;66.95;99265.34;3617116;39;20076;-67
2021/06/05 08:06:17;;;;;;;8.88;6.82;;;;;;;21.05;66.84;99270.34;3616543;39;20360;-65
2021/06/05 08:08:46;;;;;;;7.13;6.43;;;;;;;21.03;66.39;99262.53;3614054;39;20066;-65
2021/06/05 08:11:13;;;;;;;10.65;6.50;;;;;;;21.10;65.67;99262.31;3608947;39;20047;-66
2021/06/05 08:13:42;;;;;;;8.18;6.53;;;;;;;21.20;65.88;99262.47;3609929;39;20075;-65
2021/06/05 08:16:10;;;;;;;6.10;5.50;;;;;;;21.35;65.38;99272.59;3610229;39;20044;-66
2021/06/05 08:18:37;;;;;;;7.90;6.07;;;;;;;21.55;64.96;99262.06;3609795;39;20055;-66
2021/06/05 08:21:09;;;;;;;8.57;6.10;;;;;;;21.69;64.40;99268.69;3612559;39;20040;-66
2021/06/05 08:23:37;;;;;;;6.57;5.97;;;;;;;21.81;63.93;99257.78;3616234;39;20071;-65
2021/06/05 08:26:05;;;;;;;7.60;5.95;;;;;;;21.88;63.59;99260.22;3615459;39;20351;-67
2021/06/05 08:28:33;;;;;;;7.03;5.47;;;;;;;21.92;63.01;99261.34;3613333;39;20047;-64
2021/06/05 08:31:05;;;;;;;7.85;5.50;;;;;;;21.90;63.14;99261.63;3609698;39;20043;-65
2021/06/05 08:33:33;;;;;;;5.85;5.25;;;;;;;21.74;63.24;99265.22;3609183;39;20055;-65
2021/06/05 08:36:01;;;;;;;7.68;5.03;;;;;;;21.58;63.36;99260.75;3609683;39;20363;-65
2021/06/05 08:38:30;;;;;;;7.20;4.78;;;;;;;21.63;63.18;99266.19;3609518;39;20074;-65
2021/06/05 08:41:22;;;;;;;5.97;5.38;;;;;;;21.51;63.48;99258.25;3609540;39;20405;-65
2021/06/05 08:43:52;;;;;;;5.28;4.78;;;;;;;21.55;63.70;99254.00;3609664;39;20055;-65
2021/06/05 08:46:25;;;;;;;5.70;5.13;;;;;;;21.66;63.30;99258.41;3610064;39;20047;-67
2021/06/05 08:48:53;;;;;;;7.30;4.63;;;;;;;21.70;63.38;99259.53;3609469;39;20377;-65
2021/06/05 08:51:26;;;;;;;5.97;5.15;;;;;;;21.89;63.07;99265.38;3609406;39;20039;-65
2021/06/05 08:53:57;;;;;;;4.90;4.25;;;;;;;21.94;62.61;99257.34;3609692;39;20050;-65
2021/06/05 08:56:29;;;;;;;5.57;5.05;;;;;;;21.94;62.42;99262.72;3609782;39;20036;-65
2021/06/05 08:59:01;;;;;;;4.72;4.32;;;;;;;21.92;62.32;99264.03;3609313;39;20047;-65
2021/06/05 09:01:40;;;;;;;7.80;5.10;;;;;;;21.89;62.50;99262.69;3609510;39;20055;-65
2021/06/05 09:04:09;;;;;;;5.65;4.38;;;;;;;21.84;62.50;99261.81;3609837;39;20116;-64
2021/06/05 09:06:40;;;;;;;5.07;4.57;;;;;;;21.74;62.67;99266.03;3608410;39;20047;-64
2021/06/05 09:09:10;;;;;;;6.63;5.10;;;;;;;21.57;62.83;99267.22;3609117;39;20136;-66
2021/06/05 09:11:37;;;;;;;7.10;6.40;;;;;;;21.48;63.15;99267.66;3609580;39;20051;-64
2021/06/05 09:14:04;;;;;;;10.20;8.38;;;;;;;21.17;63.70;99269.16;3609227;39;20063;-63
2021/06/05 09:16:38;;;;;;;8.70;7.78;;;;;;;20.97;64.59;99280.44;3609358;39;20054;-65
2021/06/05 09:19:21;;;;;;;10.40;8.63;;;;;;;20.87;65.07;99274.94;3609394;39;20143;-65
2021/06/05 09:21:51;;;;;;;11.48;9.57;;;;;;;20.74;65.32;99275.31;3609516;39;20369;-64
2021/06/05 09:24:25;;;;;;;11.85;8.65;;;;;;;20.61;66.56;99281.81;3609445;39;20047;-65
2021/06/05 09:27:21;;;;;;;10.32;8.68;;;;;;;20.49;67.56;99283.78;3609026;39;20110;-66
2021/06/05 09:29:54;;;;;;;13.15;9.13;;;;;;;20.34;68.39;99291.59;3600420;39;20042;-65
2021/06/05 09:32:26;;;;;;;10.75;7.97;;;;;;;20.13;69.66;99301.19;3609625;39;20024;-66
2021/06/05 09:34:55;;;;;;;8.50;7.25;;;;;;;20.04;70.00;99290.84;3609627;39;20404;-66
2021/06/05 09:37:30;;;;;;;13.70;8.85;;;;;;;19.91;70.63;99303.75;3608929;39;20052;-66
2021/06/05 09:40:04;;;;;;;7.97;7.15;;;;;;;19.91;71.35;99301.88;3608696;39;20020;-67
2021/06/05 09:42:34;;;;;;;8.73;7.03;;;;;;;19.89;71.31;99305.88;3609545;39;20055;-66
2021/06/05 09:45:03;;;;;;;8.93;7.63;;;;;;;19.93;71.84;99301.66;3609932;39;20055;-67
2021/06/05 09:47:33;;;;;;;10.77;8.23;;;;;;;19.93;72.09;99305.13;3611010;39;20036;-67
2021/06/05 09:50:21;;;;;;;9.77;7.22;;;;;;;19.96;71.93;99309.19;3610836;39;20044;-66
2021/06/05 09:52:49;;;;;;;9.25;8.30;;;;;;;19.96;71.98;99298.44;3608781;39;20164;-66
2021/06/05 09:55:32;;;;;;;12.73;9.15;;;;;;;20.04;72.11;99300.75;3609706;39;20427;-67
2021/06/05 09:58:01;;;;;;;7.90;6.78;;;;;;;20.07;72.31;99289.53;3609180;39;20031;-67
2021/06/05 10:00:32;;;;;;;6.93;6.18;;;;;;;20.13;71.96;99298.50;3609294;39;20043;-67
2021/06/05 10:03:21;;;;;;;6.80;5.50;;;;;;;20.21;71.79;99296.22;3610047;39;20026;-66
2021/06/05 10:05:50;;;;;;;5.30;4.80;;;;;;;20.32;71.52;99304.44;3608083;39;20043;-67
2021/06/05 10:08:24;;;;;;;5.32;4.93;;;;;;;20.49;71.98;99299.91;3607952;39;20039;-66
2021/06/05 10:10:59;;;;;;;6.97;5.20;;;;;;;20.71;71.63;99300.78;3609841;39;20055;-66
2021/06/05 10:13:30;;;;;;;6.35;5.13;;;;;;;20.86;70.60;99310.09;3609219;39;20051;-67
2021/06/05 10:16:00;;;;;;;6.95;5.63;;;;;;;21.02;70.09;99301.19;3609259;39;20054;-67
2021/06/05 10:18:36;;;;;;;7.88;5.60;;;;;;;21.20;69.97;99298.22;3607615;39;20404;-66
2021/06/05 10:21:09;;;;;;;5.20;4.70;;;;;;;21.31;69.39;99292.97;3609297;39;20030;-67
2021/06/05 10:23:40;;;;;;;6.97;4.80;;;;;;;21.34;68.89;99293.31;3610291;39;20055;-65
2021/06/05 10:26:16;;;;;;;7.32;5.55;;;;;;;21.52;68.45;99292.19;3610879;39;20404;-66
2021/06/05 10:28:49;;;;;;;7.45;6.15;;;;;;;21.76;67.29;99288.13;3613984;39;20031;-66
2021/06/05 10:31:19;;;;;;;6.50;5.90;;;;;;;21.93;67.97;99289.91;3615000;39;20035;-66
2021/06/05 10:33:51;;;;;;;5.68;5.18;;;;;;;22.11;67.02;99283.34;3616313;39;20273;-67
2021/06/05 10:36:25;;;;;;;6.30;5.70;;;;;;;22.24;66.64;99288.31;3612139;39;20050;-66
2021/06/05 10:38:54;;;;;;;8.40;6.35;;;;;;;22.25;66.21;99288.06;3610090;39;20216;-65
2021/06/05 10:41:26;;;;;;;5.97;5.47;;;;;;;22.38;65.94;99281.44;3610573;39;20043;-66
2021/06/05 10:43:54;;;;;;;8.40;6.25;;;;;;;22.34;65.63;99283.03;3610266;39;20050;-66
2021/06/05 10:46:29;;;;;;;7.43;5.90;;;;;;;22.52;65.65;99280.97;3610585;39;20138;-65
2021/06/05 10:49:09;;;;;;;8.80;6.03;;;;;;;22.55;65.25;99275.91;3609488;39;20054;-64
2021/06/05 10:51:41;;;;;;;6.40;5.75;;;;;;;22.58;64.74;99279.97;3609031;39;20043;-65
2021/06/05 10:54:15;;;;;;;5.80;5.18;;;;;;;22.30;65.06;99278.41;3609049;39;20059;-65
2021/06/05 10:56:58;;;;;;;5.90;5.30;;;;;;;22.34;64.40;99274.94;3608918;39;20058;-65
2021/06/05 10:59:45;;;;;;;7.32;5.50;;;;;;;22.30;64.47;99268.44;3609040;39;20349;-65
2021/06/05 11:02:38;;;;;;;8.25;6.22;;;;;;;22.27;64.37;99270.84;3609006;39;20046;-64
2021/06/05 11:05:42;;;;;;;10.93;8.02;;;;;;;22.37;64.83;99274.44;3608667;39;20051;-65
2021/06/05 11:08:36;;;;;;;7.97;6.03;;;;;;;22.45;64.13;99271.25;3607505;39;20046;-65
2021/06/05 11:11:45;;;;;;;6.85;6.15;;;;;;;22.54;64.62;99268.88;3608696;39;20052;-65
2021/06/05 11:14:48;;;;;;;8.30;6.50;;;;;;;22.57;63.44;99267.53;3584796;39;20055;-66
2021/06/05 11:17:35;;;;;;;7.40;6.45;;;;;;;22.53;63.99;99266.44;3610003;39;20324;-65
2021/06/05 11:20:35;;;;;;;6.53;5.75;;;;;;;22.47;62.97;99271.00;3610378;39;20063;-65
2021/06/05 11:23:29;;;;;;;7.35;5.90;;;;;;;22.41;64.13;99274.69;3581475;39;20043;-64
2021/06/05 11:25:59;;;;;;;6.78;6.15;;;;;;;22.38;64.23;99269.84;3604734;39;20046;-65
2021/06/05 11:28:42;;;;;;;11.13;9.15;;;;;;;22.59;64.48;99266.22;3608562;39;20039;-65
2021/06/05 11:31:28;;;;;;;;;;;;;;;22.55;64.53;99265.13;3609939;39;20058;-66
2021/06/05 11:33:55;;;;;;;7.85;6.10;;;;;;;22.49;64.39;99266.13;3610215;39;19963;-67
2021/06/05 11:36:48;;;;;;;9.20;6.72;;;;;;;22.52;64.41;99260.25;3611692;39;20047;-65
2021/06/05 11:39:48;;;;;;;7.07;6.38;;;;;;;22.62;64.55;99259.50;3603475;39;20494;-66
2021/06/05 11:42:51;;;;;;;7.60;6.43;;;;;;;22.65;63.75;99254.38;3611707;39;20043;-66
2021/06/05 11:45:54;;;;;;;6.63;5.90;;;;;;;22.69;63.40;99255.50;3612246;39;20051;-66
2021/06/05 11:48:38;;;;;;;6.15;5.55;;;;;;;22.74;63.29;99252.84;3611027;39;20063;-67
2021/06/05 11:51:29;;;;;;;7.75;5.45;;;;;;;22.80;62.52;99250.16;3611703;39;20047;-67
2021/06/05 11:53:59;;;;;;;7.38;6.50;;;;;;;22.81;62.46;99251.78;3610569;39;20225;-67
2021/06/05 11:56:43;;;;;;;6.60;5.88;;;;;;;22.84;62.79;99246.69;3609963;39;20079;-67